createdAt,value
2022-12-05T00:01:58.640Z,40.07
2022-12-05T00:04:27.900Z,40.23
2022-12-05T00:06:55.792Z,44.93
2022-12-05T00:09:23.398Z,38.47
2022-12-05T00:11:50.993Z,37.37
2022-12-05T00:14:18.667Z,33.03
2022-12-05T00:16:46.303Z,30.70
2022-12-05T00:19:16.824Z,36.33
2022-12-05T00:21:46.764Z,33.43
2022-12-05T00:24:16.947Z,44.20
2022-12-05T00:26:45.462Z,34.03
2022-12-05T00:29:13.787Z,33.93
2022-12-05T00:31:41.765Z,34.40
2022-12-05T00:34:09.649Z,32.50
2022-12-05T00:36:38.000Z,36.23
2022-12-05T00:39:09.177Z,29.60
2022-12-05T00:41:36.975Z,34.70
2022-12-05T00:44:05.619Z,34.63
2022-12-05T00:46:34.717Z,32.80
2022-12-05T00:49:04.578Z,34.47
2022-12-05T00:51:34.828Z,36.33
2022-12-05T00:54:05.453Z,42.87
2022-12-05T00:56:35.587Z,33.20
2022-12-05T00:59:04.852Z,38.60
2022-12-05T01:01:34.998Z,26.67
2022-12-05T01:04:04.901Z,30.50
2022-12-05T01:06:32.858Z,29.80
2022-12-05T01:09:01.329Z,36.90
2022-12-05T01:11:29.758Z,34.77
2022-12-05T01:13:59.334Z,40.93
2022-12-05T01:16:29.728Z,37.63
2022-12-05T01:18:59.043Z,38.10
2022-12-05T01:21:27.091Z,32.33
2022-12-05T01:23:55.448Z,37.60
2022-12-05T01:26:24.209Z,42.90
2022-12-05T01:28:52.720Z,43.27
2022-12-05T01:31:24.720Z,31.93
2022-12-05T01:33:53.788Z,30.03
2022-12-05T01:36:21.900Z,27.83
2022-12-05T01:38:49.693Z,29.63
2022-12-05T01:41:21.331Z,32.30
2022-12-05T01:44:01.577Z,31.80
2022-12-05T01:46:33.076Z,35.43
2022-12-05T01:49:06.352Z,34.60
2022-12-05T01:51:35.388Z,26.80
2022-12-05T01:54:04.431Z,21.90
2022-12-05T01:56:33.716Z,30.63
2022-12-05T01:59:04.118Z,37.27
2022-12-05T02:01:33.726Z,29.93
2022-12-05T02:04:01.580Z,33.80
2022-12-05T02:06:29.769Z,28.97
2022-12-05T02:08:57.492Z,26.73
2022-12-05T02:11:28.276Z,30.03
2022-12-05T02:14:15.344Z,23.07
2022-12-05T02:16:55.000Z,27.17
2022-12-05T02:19:44.092Z,25.70
2022-12-05T02:22:40.744Z,33.20
2022-12-05T02:25:37.415Z,25.57
2022-12-05T02:28:27.714Z,26.13
2022-12-05T02:30:59.432Z,25.53
2022-12-05T02:33:35.773Z,23.23
2022-12-05T02:36:08.428Z,30.33
2022-12-05T02:38:40.520Z,28.07
2022-12-05T02:41:17.022Z,23.90
2022-12-05T02:43:51.676Z,27.00
2022-12-05T02:46:23.464Z,32.80
2022-12-05T02:48:54.372Z,23.57
2022-12-05T02:51:25.188Z,25.37
2022-12-05T02:53:59.273Z,22.80
2022-12-05T02:56:28.090Z,35.97
2022-12-05T02:58:57.028Z,25.43
2022-12-05T03:01:30.076Z,21.90
2022-12-05T03:04:00.397Z,34.00
2022-12-05T03:06:30.786Z,31.83
2022-12-05T03:09:03.545Z,25.60
2022-12-05T03:11:39.151Z,23.67
2022-12-05T03:14:13.805Z,24.90
2022-12-05T03:16:47.650Z,27.40
2022-12-05T03:19:21.656Z,24.90
2022-12-05T03:21:55.995Z,23.57
2022-12-05T03:24:24.160Z,23.73
2022-12-05T03:27:00.394Z,27.90
2022-12-05T03:29:32.666Z,29.90
2022-12-05T03:32:09.281Z,28.60
2022-12-05T03:34:46.139Z,25.93
2022-12-05T03:37:21.048Z,25.83
2022-12-05T03:39:53.848Z,24.53
2022-12-05T03:42:32.081Z,23.30
2022-12-05T03:45:05.223Z,23.70
2022-12-05T03:47:43.259Z,21.20
2022-12-05T03:50:18.557Z,27.57
2022-12-05T03:53:19.026Z,27.17
2022-12-05T03:55:50.843Z,24.77
2022-12-05T03:58:28.962Z,24.17
2022-12-05T04:01:05.785Z,29.47
2022-12-05T04:03:48.535Z,22.60
2022-12-05T04:06:35.126Z,23.57
2022-12-05T04:09:12.451Z,23.07
2022-12-05T04:11:53.615Z,24.80
2022-12-05T04:14:30.553Z,23.40
2022-12-05T04:17:06.650Z,19.43
2022-12-05T04:20:01.363Z,28.93
2022-12-05T04:22:29.891Z,26.30
2022-12-05T04:25:21.244Z,26.27
2022-12-05T04:27:59.850Z,23.53
2022-12-05T04:30:39.983Z,27.60
2022-12-05T04:33:17.785Z,25.83
2022-12-05T04:35:53.668Z,20.43
2022-12-05T04:38:28.163Z,22.23
2022-12-05T04:41:10.469Z,23.87
2022-12-05T04:43:46.553Z,21.63
2022-12-05T04:46:17.918Z,25.57
2022-12-05T04:48:59.696Z,18.33
2022-12-05T04:51:40.238Z,24.20
2022-12-05T04:54:18.325Z,20.23
2022-12-05T04:57:02.822Z,23.07
2022-12-05T04:59:31.799Z,19.10
2022-12-05T05:02:09.226Z,22.57
2022-12-05T05:04:43.616Z,22.27
2022-12-05T05:07:16.614Z,18.33
2022-12-05T05:09:51.338Z,20.13
2022-12-05T05:12:19.912Z,22.87
2022-12-05T05:14:48.600Z,23.20
2022-12-05T05:17:19.952Z,21.83
2022-12-05T05:19:50.452Z,20.27
2022-12-05T05:22:21.900Z,24.97
2022-12-05T05:25:00.550Z,24.83
2022-12-05T05:27:32.205Z,22.53
2022-12-05T05:30:05.826Z,16.90
2022-12-05T05:32:47.623Z,21.40
2022-12-05T05:35:41.786Z,18.60
2022-12-05T05:38:21.532Z,17.03
2022-12-05T05:40:52.699Z,15.03
2022-12-05T05:43:21.541Z,18.57
2022-12-05T05:45:52.790Z,20.10
2022-12-05T05:48:23.304Z,17.33
2022-12-05T05:50:57.458Z,22.67
2022-12-05T05:53:26.665Z,25.03
2022-12-05T05:55:54.316Z,15.40
2022-12-05T05:58:23.097Z,21.73
2022-12-05T06:00:50.885Z,14.43
2022-12-05T06:03:19.388Z,15.47
2022-12-05T06:05:57.818Z,16.67
2022-12-05T06:08:26.978Z,14.57
2022-12-05T06:10:54.960Z,15.60
2022-12-05T06:13:22.564Z,17.10
2022-12-05T06:15:50.305Z,17.63
2022-12-05T06:18:17.962Z,18.63
2022-12-05T06:20:52.960Z,18.30
2022-12-05T06:23:20.744Z,16.27
2022-12-05T06:25:50.843Z,22.63
2022-12-05T06:28:19.736Z,20.17
2022-12-05T06:30:48.127Z,15.37
2022-12-05T06:33:16.477Z,16.60
2022-12-05T06:35:44.588Z,17.03
2022-12-05T06:38:12.405Z,12.90
2022-12-05T06:40:41.761Z,15.03
2022-12-05T06:43:10.815Z,16.53
2022-12-05T06:45:38.677Z,12.40
2022-12-05T06:48:06.746Z,11.83
2022-12-05T06:50:34.490Z,10.60
2022-12-05T06:53:02.079Z,13.97
2022-12-05T06:55:29.654Z,16.77
2022-12-05T06:57:58.018Z,16.10
2022-12-05T07:00:44.644Z,14.90
2022-12-05T07:03:12.253Z,14.23
2022-12-05T07:05:39.846Z,16.30
2022-12-05T07:08:07.636Z,17.97
2022-12-05T07:10:35.219Z,13.73
2022-12-05T07:13:02.807Z,17.77
2022-12-05T07:15:31.891Z,14.57
2022-12-05T07:17:59.734Z,14.33
2022-12-05T07:20:38.439Z,16.03
2022-12-05T07:23:15.329Z,12.57
2022-12-05T07:25:43.001Z,12.97
2022-12-05T07:28:10.567Z,11.97
2022-12-05T07:30:39.548Z,11.77
2022-12-05T07:33:07.357Z,9.90
2022-12-05T07:35:34.953Z,21.00
2022-12-05T07:38:03.009Z,13.70
2022-12-05T07:40:31.420Z,11.33
2022-12-05T07:42:59.072Z,13.87
2022-12-05T07:45:26.787Z,14.17
2022-12-05T07:47:55.829Z,20.17
2022-12-05T07:50:23.418Z,15.10
2022-12-05T07:52:50.986Z,15.07
2022-12-05T07:55:18.760Z,14.87
2022-12-05T07:57:46.379Z,11.87
2022-12-05T08:00:15.572Z,15.30
2022-12-05T08:02:43.249Z,14.07
2022-12-05T08:05:12.200Z,12.50
2022-12-05T08:07:39.823Z,12.93
2022-12-05T08:10:08.973Z,12.60
2022-12-05T08:12:37.790Z,11.27
2022-12-05T08:15:06.489Z,16.77
2022-12-05T08:17:34.486Z,14.30
2022-12-05T08:20:02.525Z,12.63
2022-12-05T08:22:31.479Z,18.23
2022-12-05T08:24:59.084Z,14.03
2022-12-05T08:27:26.820Z,17.53
2022-12-05T08:29:55.502Z,14.50
2022-12-05T08:32:23.443Z,14.97
2022-12-05T08:34:51.251Z,17.73
2022-12-05T08:37:18.920Z,14.60
2022-12-05T08:39:47.814Z,17.03
2022-12-05T08:42:15.394Z,18.30
2022-12-05T08:44:43.005Z,14.20
2022-12-05T08:47:10.615Z,12.80
2022-12-05T08:49:38.167Z,18.20
2022-12-05T08:52:05.933Z,10.07
2022-12-05T08:54:33.535Z,11.53
2022-12-05T08:57:02.515Z,14.20
2022-12-05T08:59:30.120Z,12.67
2022-12-05T09:01:57.820Z,14.43
2022-12-05T09:04:25.399Z,14.80
2022-12-05T09:06:53.352Z,10.67
2022-12-05T09:09:20.926Z,12.50
2022-12-05T09:11:50.722Z,11.80
2022-12-05T09:14:19.974Z,9.73
2022-12-05T09:16:48.315Z,13.07
2022-12-05T09:19:18.047Z,14.57
2022-12-05T09:21:45.702Z,12.90
2022-12-05T09:24:14.633Z,14.10
2022-12-05T09:26:43.218Z,12.20
2022-12-05T09:29:16.843Z,13.93
2022-12-05T09:31:48.832Z,14.90
2022-12-05T09:34:17.973Z,12.90
2022-12-05T09:36:49.596Z,13.90
2022-12-05T09:39:17.447Z,13.00
2022-12-05T09:42:07.850Z,10.30
2022-12-05T09:44:48.840Z,9.73
2022-12-05T09:47:33.443Z,13.00
2022-12-05T09:50:04.295Z,15.50
2022-12-05T09:52:36.174Z,13.17
2022-12-05T09:55:07.519Z,14.43
2022-12-05T09:57:39.243Z,11.87
2022-12-05T10:00:10.700Z,9.90
2022-12-05T10:02:50.133Z,9.63
2022-12-05T10:05:23.893Z,10.53
2022-12-05T10:07:57.469Z,13.43
2022-12-05T10:10:40.867Z,9.37
2022-12-05T10:13:26.077Z,8.97
2022-12-05T10:15:57.552Z,10.07
2022-12-05T10:18:34.870Z,10.77
2022-12-05T10:21:06.422Z,9.03
2022-12-05T10:23:57.693Z,12.20
2022-12-05T10:26:29.365Z,11.10
2022-12-05T10:29:01.783Z,9.60
2022-12-05T10:31:34.389Z,9.90
2022-12-05T10:34:10.087Z,9.90
2022-12-05T10:36:37.632Z,9.90
2022-12-05T10:39:11.219Z,11.63
2022-12-05T10:41:39.402Z,10.40
2022-12-05T10:44:07.062Z,6.43
2022-12-05T10:46:34.733Z,9.30
2022-12-05T10:49:03.848Z,9.83
2022-12-05T10:51:37.295Z,11.97
2022-12-05T10:54:18.161Z,8.77
2022-12-05T10:56:47.502Z,6.53
2022-12-05T10:59:16.975Z,9.83
2022-12-05T11:01:49.449Z,7.90
2022-12-05T11:04:28.503Z,10.03
2022-12-05T11:06:59.803Z,13.00
2022-12-05T11:09:29.603Z,9.03
2022-12-05T11:12:16.705Z,7.27
2022-12-05T11:14:56.046Z,9.10
2022-12-05T11:17:27.067Z,10.17
2022-12-05T11:19:55.983Z,11.30
2022-12-05T11:22:32.162Z,10.80
2022-12-05T11:25:00.009Z,9.47
2022-12-05T11:27:31.072Z,9.30
2022-12-05T11:30:01.844Z,8.07
2022-12-05T11:32:31.528Z,18.37
2022-12-05T11:35:10.605Z,8.07
2022-12-05T11:37:44.355Z,6.57
2022-12-05T11:40:17.403Z,9.43
2022-12-05T11:43:05.367Z,7.87
2022-12-05T11:45:46.978Z,11.20
2022-12-05T11:48:36.373Z,6.47
2022-12-05T11:51:21.531Z,9.37
2022-12-05T11:54:12.135Z,7.23
2022-12-05T11:56:43.208Z,6.33
2022-12-05T11:59:27.929Z,6.67
2022-12-05T12:02:04.345Z,6.90
2022-12-05T12:04:45.401Z,11.70
2022-12-05T12:07:41.840Z,6.00
2022-12-05T12:10:21.759Z,6.00
2022-12-05T12:13:03.640Z,6.97
2022-12-05T12:15:44.706Z,4.77
2022-12-05T12:18:25.256Z,7.47
2022-12-05T12:21:06.623Z,8.67
2022-12-05T12:23:50.629Z,9.47
2022-12-05T12:26:28.302Z,6.30
2022-12-05T12:29:04.333Z,9.73
2022-12-05T12:31:43.921Z,4.47
2022-12-05T12:34:27.527Z,5.13
2022-12-05T12:37:02.908Z,8.63
2022-12-05T12:39:45.980Z,9.90
2022-12-05T12:42:22.433Z,5.40
2022-12-05T12:45:07.134Z,7.30
2022-12-05T12:47:47.074Z,8.73
2022-12-05T12:50:20.765Z,6.87
2022-12-05T12:53:20.228Z,6.17
2022-12-05T12:55:57.103Z,8.07
2022-12-05T12:58:41.226Z,4.43
2022-12-05T13:01:16.978Z,7.53
2022-12-05T13:03:51.836Z,6.57
2022-12-05T13:06:25.502Z,5.60
2022-12-05T13:08:58.423Z,6.83
2022-12-05T13:11:29.684Z,7.90
2022-12-05T13:14:00.442Z,6.10
2022-12-05T13:16:30.108Z,9.10
2022-12-05T13:18:58.522Z,5.63
2022-12-05T13:21:28.137Z,6.37
2022-12-05T13:23:59.200Z,6.90
2022-12-05T13:26:28.156Z,6.93
2022-12-05T13:28:57.897Z,6.53
2022-12-05T13:31:40.012Z,8.87
2022-12-05T13:34:27.912Z,5.57
2022-12-05T13:37:14.464Z,7.83
2022-12-05T13:40:00.119Z,7.13
2022-12-05T13:42:33.076Z,6.83
2022-12-05T13:45:10.108Z,10.33
2022-12-05T13:47:51.384Z,6.90
2022-12-05T13:50:34.532Z,7.50
2022-12-05T13:53:06.334Z,6.70
2022-12-05T13:55:36.828Z,5.83
2022-12-05T13:58:41.909Z,6.90
2022-12-05T14:01:52.016Z,8.50
2022-12-05T14:04:50.925Z,8.60
2022-12-05T14:07:46.848Z,13.23
2022-12-05T14:10:16.605Z,6.20
2022-12-05T14:12:55.840Z,8.60
2022-12-05T14:15:31.270Z,9.47
2022-12-05T14:18:03.393Z,10.70
2022-12-05T14:20:46.429Z,7.00
2022-12-05T14:23:28.422Z,6.20
2022-12-05T14:26:09.199Z,5.23
2022-12-05T14:28:50.856Z,7.27
2022-12-05T14:31:35.173Z,6.93
2022-12-05T14:34:14.859Z,9.17
2022-12-05T14:36:55.602Z,10.83
2022-12-05T14:39:30.767Z,7.00
2022-12-05T14:42:00.407Z,7.90
2022-12-05T14:44:32.172Z,7.07
2022-12-05T14:47:05.540Z,7.00
2022-12-05T14:49:53.419Z,8.30
2022-12-05T14:52:23.290Z,10.17
2022-12-05T14:54:53.311Z,5.83
2022-12-05T14:57:22.901Z,6.47
2022-12-05T14:59:54.364Z,7.83
2022-12-05T15:02:28.973Z,6.73
2022-12-05T15:05:01.597Z,7.53
2022-12-05T15:07:33.966Z,6.40
2022-12-05T15:10:05.932Z,4.90
2022-12-05T15:12:39.691Z,9.30
2022-12-05T15:15:14.536Z,5.47
2022-12-05T15:17:48.521Z,8.80
2022-12-05T15:20:22.398Z,7.17
2022-12-05T15:22:50.262Z,8.43
2022-12-05T15:25:30.454Z,5.30
2022-12-05T15:28:01.595Z,4.43
2022-12-05T15:30:30.196Z,5.87
2022-12-05T15:33:00.068Z,6.37
2022-12-05T15:35:31.821Z,6.60
2022-12-05T15:38:02.480Z,7.30
2022-12-05T15:40:37.253Z,6.50
2022-12-05T15:43:28.486Z,10.60
2022-12-05T15:46:10.137Z,7.17
2022-12-05T15:48:39.162Z,8.47
2022-12-05T15:51:07.079Z,6.43
2022-12-05T15:53:38.067Z,6.43
2022-12-05T15:56:08.351Z,5.90
2022-12-05T15:58:41.705Z,11.53
2022-12-05T16:01:14.112Z,14.80
2022-12-05T16:03:49.564Z,8.30
2022-12-05T16:06:20.944Z,10.53
2022-12-05T16:08:50.535Z,8.37
2022-12-05T16:11:18.938Z,7.67
2022-12-05T16:13:50.611Z,7.10
2022-12-05T16:16:22.486Z,8.40
2022-12-05T16:18:54.864Z,11.93
2022-12-05T16:21:36.015Z,8.13
2022-12-05T16:24:09.366Z,9.17
2022-12-05T16:26:39.376Z,6.90
2022-12-05T16:29:09.266Z,11.03
2022-12-05T16:31:37.396Z,7.60
2022-12-05T16:34:09.492Z,10.63
2022-12-05T16:36:37.136Z,8.40
2022-12-05T16:39:07.040Z,11.93
2022-12-05T16:41:36.922Z,7.27
2022-12-05T16:44:11.457Z,11.60
2022-12-05T16:46:46.777Z,12.40
2022-12-05T16:49:21.999Z,8.90
2022-12-05T16:51:56.805Z,15.13
2022-12-05T16:54:24.381Z,14.00
2022-12-05T16:56:52.560Z,12.13
2022-12-05T16:59:24.479Z,14.10
2022-12-05T17:01:52.255Z,13.33
2022-12-05T17:04:21.497Z,12.50
2022-12-05T17:06:49.651Z,9.13
2022-12-05T17:09:17.438Z,10.10
2022-12-05T17:11:47.995Z,15.60
2022-12-05T17:14:18.278Z,11.20
2022-12-05T17:16:45.960Z,14.63
2022-12-05T17:19:14.252Z,16.30
2022-12-05T17:21:43.783Z,13.67
2022-12-05T17:24:16.966Z,15.50
2022-12-05T17:26:45.325Z,9.33
2022-12-05T17:29:13.103Z,10.10
2022-12-05T17:31:40.699Z,11.10
2022-12-05T17:34:15.572Z,14.07
2022-12-05T17:36:45.926Z,10.43
2022-12-05T17:39:14.147Z,10.73
2022-12-05T17:41:41.799Z,8.77
2022-12-05T17:44:13.876Z,10.23
2022-12-05T17:46:42.640Z,11.43
2022-12-05T17:49:13.677Z,9.97
2022-12-05T17:52:05.579Z,9.50
2022-12-05T17:54:31.964Z,11.70
2022-12-05T17:56:59.712Z,12.30
2022-12-05T17:59:27.270Z,10.87
2022-12-05T18:01:54.940Z,15.47
2022-12-05T18:04:23.463Z,9.40
2022-12-05T18:06:51.678Z,11.20
2022-12-05T18:09:20.378Z,8.13
2022-12-05T18:11:49.811Z,10.60
2022-12-05T18:14:17.431Z,10.07
2022-12-05T18:16:45.155Z,14.73
2022-12-05T18:19:12.753Z,14.20
2022-12-05T18:21:40.423Z,12.60
2022-12-05T18:24:08.308Z,8.13
2022-12-05T18:26:35.887Z,10.50
2022-12-05T18:29:04.988Z,10.67
2022-12-05T18:31:32.694Z,16.60
2022-12-05T18:34:00.334Z,13.80
2022-12-05T18:36:28.226Z,13.83
2022-12-05T18:38:57.615Z,10.37
2022-12-05T18:41:27.064Z,13.10
2022-12-05T18:43:55.303Z,13.23
2022-12-05T18:46:24.908Z,11.00
2022-12-05T18:48:52.810Z,9.40
2022-12-05T18:51:22.707Z,12.73
2022-12-05T18:53:53.215Z,11.40
2022-12-05T18:56:24.712Z,9.77
2022-12-05T18:58:58.033Z,10.07
2022-12-05T19:01:28.144Z,14.33
2022-12-05T19:03:57.303Z,12.03
2022-12-05T19:06:27.465Z,9.03
2022-12-05T19:08:57.130Z,10.10
2022-12-05T19:11:27.057Z,10.33
2022-12-05T19:13:56.566Z,11.77
2022-12-05T19:16:24.442Z,9.93
2022-12-05T19:18:56.495Z,15.43
2022-12-05T19:21:24.536Z,12.50
2022-12-05T19:23:52.310Z,11.27
2022-12-05T19:26:20.002Z,15.70
2022-12-05T19:28:47.829Z,13.43
2022-12-05T19:31:17.926Z,15.00
2022-12-05T19:33:48.061Z,16.13
2022-12-05T19:36:19.104Z,11.10
2022-12-05T19:38:49.083Z,11.83
2022-12-05T19:41:19.617Z,8.30
2022-12-05T19:43:47.395Z,9.90
2022-12-05T19:46:17.101Z,8.03
2022-12-05T19:48:44.736Z,12.00
2022-12-05T19:51:12.688Z,13.00
2022-12-05T19:53:43.759Z,9.00
2022-12-05T19:56:14.353Z,6.63
2022-12-05T19:58:42.759Z,7.97
2022-12-05T20:01:12.481Z,7.20
2022-12-05T20:03:40.943Z,10.43
2022-12-05T20:06:09.878Z,10.60
2022-12-05T20:08:38.853Z,12.43
2022-12-05T20:11:12.867Z,12.83
2022-12-05T20:13:49.025Z,15.30
2022-12-05T20:16:22.314Z,12.13
2022-12-05T20:18:51.110Z,11.43
2022-12-05T20:21:21.887Z,10.37
2022-12-05T20:23:49.932Z,11.27
2022-12-05T20:26:21.592Z,10.27
2022-12-05T20:28:49.781Z,17.53
2022-12-05T20:31:19.659Z,9.90
2022-12-05T20:33:47.844Z,10.73
2022-12-05T20:36:18.070Z,8.03
2022-12-05T20:38:46.546Z,13.30
2022-12-05T20:41:17.188Z,13.97
2022-12-05T20:43:47.372Z,9.90
2022-12-05T20:46:17.494Z,9.20
2022-12-05T20:48:45.903Z,10.83
2022-12-05T20:51:15.009Z,12.17
2022-12-05T20:53:44.116Z,8.20
2022-12-05T20:56:13.492Z,10.40
2022-12-05T20:58:41.965Z,8.40
2022-12-05T21:01:12.398Z,9.47
2022-12-05T21:03:41.810Z,9.70
2022-12-05T21:06:11.277Z,8.20
2022-12-05T21:08:40.112Z,6.73
2022-12-05T21:11:08.684Z,11.40
2022-12-05T21:13:36.707Z,9.20
2022-12-05T21:16:04.974Z,10.30
2022-12-05T21:18:34.967Z,10.30
2022-12-05T21:21:05.247Z,7.30
2022-12-05T21:23:33.387Z,9.27
2022-12-05T21:26:03.064Z,6.40
2022-12-05T21:28:31.343Z,8.60
2022-12-05T21:31:06.356Z,9.50
2022-12-05T21:33:36.047Z,6.33
2022-12-05T21:36:04.639Z,7.03
2022-12-05T21:38:32.711Z,8.93
2022-12-05T21:41:00.680Z,10.30
2022-12-05T21:43:29.294Z,7.77
2022-12-05T21:45:57.629Z,4.63
2022-12-05T21:48:26.364Z,10.27
2022-12-05T21:50:56.781Z,4.83
2022-12-05T21:53:26.855Z,7.80
2022-12-05T21:56:01.291Z,5.03
2022-12-05T21:58:29.588Z,5.43
2022-12-05T22:01:01.377Z,6.83
2022-12-05T22:03:29.949Z,7.20
2022-12-05T22:06:03.005Z,6.67
2022-12-05T22:08:30.897Z,4.97
2022-12-05T22:11:04.816Z,4.93
2022-12-05T22:13:33.016Z,6.63
2022-12-05T22:16:00.793Z,5.83
2022-12-05T22:18:29.718Z,5.93
2022-12-05T22:20:58.362Z,6.60
2022-12-05T22:23:27.464Z,6.43
2022-12-05T22:25:59.599Z,6.90
2022-12-05T22:28:28.091Z,5.97
2022-12-05T22:30:56.588Z,10.70
2022-12-05T22:33:24.586Z,7.50
2022-12-05T22:35:53.252Z,6.30
2022-12-05T22:38:22.273Z,5.43
2022-12-05T22:40:56.053Z,7.97
2022-12-05T22:43:25.700Z,7.97
2022-12-05T22:45:53.545Z,7.33
2022-12-05T22:48:21.766Z,7.80
2022-12-05T22:50:50.627Z,5.27
2022-12-05T22:53:20.724Z,7.83
2022-12-05T22:55:48.686Z,6.03
2022-12-05T22:58:18.719Z,6.83
2022-12-05T23:00:47.242Z,7.80
2022-12-05T23:03:37.831Z,6.73
2022-12-05T23:06:11.181Z,4.77
2022-12-05T23:08:41.091Z,5.30
2022-12-05T23:11:10.158Z,6.03
2022-12-05T23:13:39.828Z,4.00
2022-12-05T23:16:09.127Z,7.30
2022-12-05T23:18:46.603Z,5.10
2022-12-05T23:21:20.083Z,6.40
2022-12-05T23:23:48.955Z,5.77
2022-12-05T23:26:17.570Z,7.17
2022-12-05T23:28:46.882Z,4.33
2022-12-05T23:31:16.199Z,5.50
2022-12-05T23:33:44.010Z,4.37
2022-12-05T23:36:12.697Z,4.97
2022-12-05T23:38:41.757Z,8.37
2022-12-05T23:41:13.308Z,4.63
2022-12-05T23:43:42.420Z,4.67
2022-12-05T23:46:13.295Z,5.03
2022-12-05T23:48:41.437Z,4.17
2022-12-05T23:51:11.282Z,5.83
2022-12-05T23:53:41.315Z,4.87
2022-12-05T23:56:12.221Z,3.77
2022-12-05T23:58:40.467Z,7.20
